createdAt,value
2019-03-24T00:03:23.896Z,96594.98
2019-03-24T00:08:20.856Z,96589.59
2019-03-24T00:13:17.893Z,96591.58
2019-03-24T00:18:14.847Z,96579.15
2019-03-24T00:23:11.933Z,96581.12
2019-03-24T00:28:09.065Z,96571.17
2019-03-24T00:33:06.467Z,96569.55
2019-03-24T00:38:03.435Z,96564.69
2019-03-24T00:43:00.571Z,96563.77
2019-03-24T00:47:57.487Z,96554.48
2019-03-24T00:52:54.509Z,96549.38
2019-03-24T00:57:51.576Z,96545.77
2019-03-24T01:02:48.578Z,96546.59
2019-03-24T01:07:45.528Z,96543.59
2019-03-24T01:12:42.654Z,96538.08
2019-03-24T01:17:39.597Z,96545.47
2019-03-24T01:22:36.576Z,96540.59
2019-03-24T01:27:33.629Z,96538.32
2019-03-24T01:32:30.664Z,96539.31
2019-03-24T01:37:27.605Z,96544.80
2019-03-24T01:42:24.624Z,96534.48
2019-03-24T01:47:22.517Z,96530.18
2019-03-24T01:52:19.577Z,96529.68
2019-03-24T01:57:16.569Z,96534.98
2019-03-24T02:02:13.605Z,96529.68
2019-03-24T02:07:10.526Z,96530.59
2019-03-24T02:12:08.001Z,96530.70
2019-03-24T02:17:05.034Z,96530.53
2019-03-24T02:22:02.118Z,96528.41
2019-03-24T02:26:59.156Z,96528.27
2019-03-24T02:31:56.264Z,96529.20
2019-03-24T02:36:53.328Z,96530.67
2019-03-24T02:41:50.323Z,96528.57
2019-03-24T02:46:47.396Z,96525.77
2019-03-24T02:51:44.567Z,96529.34
2019-03-24T02:56:41.541Z,96526.06
2019-03-24T03:01:38.715Z,96530.84
2019-03-24T03:06:35.741Z,96518.61
2019-03-24T03:11:32.909Z,96518.11
2019-03-24T03:16:38.218Z,96515.13
2019-03-24T03:21:28.798Z,96511.91
2019-03-24T03:26:25.756Z,96511.08
2019-03-24T03:31:22.797Z,96508.98
2019-03-24T03:36:19.820Z,96517.95
2019-03-24T03:41:16.931Z,96515.85
2019-03-24T03:46:13.993Z,96504.84
2019-03-24T03:51:11.098Z,96512.88
2019-03-24T03:56:08.500Z,96505.33
2019-03-24T04:01:05.579Z,96502.27
2019-03-24T04:06:02.750Z,96506.48
2019-03-24T04:10:59.737Z,96501.83
2019-03-24T04:15:56.989Z,96494.42
2019-03-24T04:20:54.616Z,96502.46
2019-03-24T04:25:51.654Z,96501.51
2019-03-24T04:30:48.876Z,96492.73
2019-03-24T04:35:45.912Z,96485.75
2019-03-24T04:40:42.942Z,96492.89
2019-03-24T04:45:40.026Z,96495.98
2019-03-24T04:50:37.051Z,96504.22
2019-03-24T04:55:36.141Z,96500.12
2019-03-24T05:00:37.035Z,96508.27
2019-03-24T05:05:34.155Z,96506.11
2019-03-24T05:10:31.228Z,96512.31
2019-03-24T05:15:28.275Z,96508.83
2019-03-24T05:20:25.276Z,96515.94
2019-03-24T05:25:23.760Z,96506.88
2019-03-24T05:30:20.862Z,96502.72
2019-03-24T05:35:17.856Z,96503.06
2019-03-24T05:40:14.986Z,96500.41
2019-03-24T05:45:11.939Z,96509.77
2019-03-24T05:50:10.505Z,96510.89
2019-03-24T05:55:07.641Z,96520.67
2019-03-24T06:00:06.741Z,96511.83
2019-03-24T06:05:04.947Z,96510.94
2019-03-24T06:10:02.883Z,96502.81
2019-03-24T06:14:59.888Z,96513.61
2019-03-24T06:19:56.979Z,96525.26
2019-03-24T06:24:53.998Z,96525.11
2019-03-24T06:29:51.075Z,96538.64
2019-03-24T06:34:48.032Z,96539.84
2019-03-24T06:39:45.078Z,96533.86
2019-03-24T06:44:42.320Z,96548.30
2019-03-24T06:49:40.591Z,96556.27
2019-03-24T06:54:37.669Z,96562.46
2019-03-24T06:59:34.669Z,96570.69
2019-03-24T07:04:31.659Z,96577.84
2019-03-24T07:09:30.902Z,96592.07
2019-03-24T07:14:27.974Z,96587.86
2019-03-24T07:19:26.875Z,96592.73
2019-03-24T07:24:23.909Z,96598.93
2019-03-24T07:29:21.058Z,96604.77
2019-03-24T07:34:18.544Z,96605.61
2019-03-24T07:39:15.594Z,96596.91
2019-03-24T07:44:12.598Z,96606.59
2019-03-24T07:49:09.706Z,96611.47
2019-03-24T07:54:06.751Z,96610.95
2019-03-24T07:59:03.770Z,96608.44
2019-03-24T08:04:00.874Z,96615.42
2019-03-24T08:08:58.335Z,96603.88
2019-03-24T08:13:55.340Z,96604.85
2019-03-24T08:18:52.468Z,96609.16
2019-03-24T08:23:49.523Z,96602.08
2019-03-24T08:28:46.661Z,96599.64
2019-03-24T08:33:43.690Z,96591.78
2019-03-24T08:38:40.694Z,96580.80
2019-03-24T08:43:37.694Z,96578.18
2019-03-24T08:48:40.798Z,96577.42
2019-03-24T08:53:33.666Z,96567.44
2019-03-24T08:58:30.785Z,96556.25
2019-03-24T09:03:27.759Z,96560.08
2019-03-24T09:08:25.214Z,96558.77
2019-03-24T09:13:22.182Z,96555.63
2019-03-24T09:18:19.250Z,96541.48
2019-03-24T09:23:16.318Z,96541.85
2019-03-24T09:28:13.432Z,96537.38
2019-03-24T09:33:10.492Z,96523.44
2019-03-24T09:38:07.649Z,96523.36
2019-03-24T09:43:04.872Z,96514.28
2019-03-24T09:48:01.891Z,96518.81
2019-03-24T09:52:58.888Z,96515.63
2019-03-24T09:57:55.977Z,96511.50
2019-03-24T10:02:53.000Z,96516.69
2019-03-24T10:07:50.030Z,96517.52
2019-03-24T10:12:47.473Z,96511.91
2019-03-24T10:17:44.466Z,96507.20
2019-03-24T10:22:41.574Z,96516.36
2019-03-24T10:27:39.187Z,96516.01
2019-03-24T10:32:36.276Z,96511.00
2019-03-24T10:37:33.324Z,96500.13
2019-03-24T10:42:30.467Z,96497.11
2019-03-24T10:47:27.589Z,96505.09
2019-03-24T10:52:24.692Z,96502.19
2019-03-24T10:57:23.665Z,96498.59
2019-03-24T11:02:20.737Z,96491.00
2019-03-24T11:07:17.910Z,96493.61
2019-03-24T11:12:15.090Z,96484.16
2019-03-24T11:17:12.139Z,96479.19
2019-03-24T11:22:09.142Z,96482.52
2019-03-24T11:27:07.503Z,96478.97
2019-03-24T11:32:04.556Z,96468.40
2019-03-24T11:37:02.151Z,96461.55
2019-03-24T11:41:59.164Z,96451.28
2019-03-24T11:46:57.223Z,96454.30
2019-03-24T11:51:54.297Z,96452.62
2019-03-24T11:56:54.101Z,96437.42
2019-03-24T12:01:51.113Z,96441.30
2019-03-24T12:06:48.370Z,96437.81
2019-03-24T12:11:45.410Z,96431.25
2019-03-24T12:16:42.554Z,96426.86
2019-03-24T12:21:39.625Z,96415.28
2019-03-24T12:26:36.650Z,96413.94
2019-03-24T12:31:33.807Z,96406.65
2019-03-24T12:36:31.040Z,96393.02
2019-03-24T12:41:28.239Z,96392.16
2019-03-24T12:46:25.382Z,96381.05
2019-03-24T12:51:22.435Z,96372.24
2019-03-24T12:56:19.444Z,96358.89
2019-03-24T13:01:16.436Z,96344.94
2019-03-24T13:06:13.440Z,96343.77
2019-03-24T13:11:10.574Z,96338.92
2019-03-24T13:16:07.610Z,96326.81
2019-03-24T13:21:04.805Z,96320.23
2019-03-24T13:26:01.932Z,96308.67
2019-03-24T13:30:59.009Z,96301.97
2019-03-24T13:36:03.764Z,96297.78
2019-03-24T13:41:00.795Z,96290.17
2019-03-24T13:45:57.897Z,96288.42
2019-03-24T13:50:54.855Z,96267.92
2019-03-24T13:55:51.899Z,96263.94
2019-03-24T14:00:48.850Z,96257.23
2019-03-24T14:05:45.972Z,96239.34
2019-03-24T14:10:43.008Z,96236.81
2019-03-24T14:15:40.056Z,96228.56
2019-03-24T14:20:43.358Z,96225.12
2019-03-24T14:25:36.035Z,96206.80
2019-03-24T14:30:42.348Z,96208.50
2019-03-24T14:35:39.964Z,96192.63
2019-03-24T14:40:37.764Z,96192.28
2019-03-24T14:45:34.919Z,96186.62
2019-03-24T14:50:32.060Z,96165.75
2019-03-24T14:55:29.107Z,96161.28
2019-03-24T15:00:41.614Z,96160.42
2019-03-24T15:05:40.454Z,96156.91
2019-03-24T15:10:37.490Z,96138.47
2019-03-24T15:15:36.012Z,96138.06
2019-03-24T15:20:33.052Z,96132.79
2019-03-24T15:25:30.092Z,96133.70
2019-03-24T15:30:27.216Z,96126.20
2019-03-24T15:35:25.677Z,96127.31
2019-03-24T15:40:23.354Z,96126.98
2019-03-24T15:45:20.876Z,96123.06
2019-03-24T15:50:17.982Z,96126.33
2019-03-24T15:55:16.273Z,96135.55
2019-03-24T16:00:15.092Z,96121.66
2019-03-24T16:05:12.060Z,96122.39
2019-03-24T16:10:09.268Z,96116.27
2019-03-24T16:15:06.933Z,96106.34
2019-03-24T16:20:07.216Z,96104.36
2019-03-24T16:25:06.108Z,96108.05
2019-03-24T16:30:05.331Z,96107.38
2019-03-24T16:35:02.982Z,96106.55
2019-03-24T16:40:00.039Z,96103.39
2019-03-24T16:44:57.098Z,96094.94
2019-03-24T16:49:54.209Z,96100.31
2019-03-24T16:54:51.270Z,96097.16
2019-03-24T16:59:48.761Z,96098.23
2019-03-24T17:04:45.706Z,96088.87
2019-03-24T17:09:43.009Z,96096.77
2019-03-24T17:14:39.946Z,96081.50
2019-03-24T17:19:38.275Z,96095.33
2019-03-24T17:24:35.466Z,96089.55
2019-03-24T17:29:34.732Z,96093.63
2019-03-24T17:34:31.766Z,96089.42
2019-03-24T17:39:29.437Z,96093.59
2019-03-24T17:44:26.545Z,96099.52
2019-03-24T17:49:23.548Z,96088.11
2019-03-24T17:54:21.857Z,96090.64
2019-03-24T17:59:18.863Z,96088.71
2019-03-24T18:04:15.962Z,96080.44
2019-03-24T18:09:12.966Z,96091.87
2019-03-24T18:14:10.049Z,96092.73
2019-03-24T18:19:07.258Z,96086.63
2019-03-24T18:24:04.203Z,96086.95
2019-03-24T18:29:01.241Z,96091.31
2019-03-24T18:33:58.297Z,96082.45
2019-03-24T18:38:56.360Z,96088.83
2019-03-24T18:43:53.351Z,96096.09
2019-03-24T18:48:50.472Z,96089.82
2019-03-24T18:53:47.597Z,96072.59
2019-03-24T18:58:44.722Z,96071.11
2019-03-24T19:03:41.654Z,96058.00
2019-03-24T19:13:45.323Z,96047.38
2019-03-24T19:18:42.310Z,96036.41
2019-03-24T19:23:39.470Z,96037.91
2019-03-24T19:28:36.797Z,96032.50
2019-03-24T19:33:34.145Z,96033.16
2019-03-24T19:38:33.652Z,96023.33
2019-03-24T19:43:33.392Z,96026.08
2019-03-24T19:48:30.504Z,96014.70
2019-03-24T19:53:27.771Z,95997.49
2019-03-24T19:58:24.802Z,96003.70
2019-03-24T20:03:22.761Z,95997.02
2019-03-24T20:08:19.714Z,95992.52
2019-03-24T20:13:16.726Z,95983.82
2019-03-24T20:18:13.777Z,95979.20
2019-03-24T20:23:10.979Z,95979.91
2019-03-24T20:28:07.959Z,95968.91
2019-03-24T20:33:08.558Z,95961.89
2019-03-24T20:38:05.480Z,95956.45
2019-03-24T20:43:02.540Z,95955.44
2019-03-24T20:47:59.492Z,95935.15
2019-03-24T20:53:04.093Z,95941.58
2019-03-24T20:57:55.748Z,95922.43
2019-03-24T21:02:52.691Z,95927.96
2019-03-24T21:07:49.815Z,95939.20
2019-03-24T21:12:46.803Z,95936.59
2019-03-24T21:17:44.334Z,95901.70
2019-03-24T21:22:41.290Z,95896.07
2019-03-24T21:27:38.400Z,95902.64
2019-03-24T21:32:35.360Z,95875.22
2019-03-24T21:37:32.454Z,95879.53
2019-03-24T21:42:29.392Z,95880.88
2019-03-24T21:47:26.368Z,95875.77
2019-03-24T21:52:23.341Z,95866.48
2019-03-24T21:57:20.340Z,95842.52
2019-03-24T22:02:17.369Z,95826.93
2019-03-24T22:07:14.466Z,95828.31
2019-03-24T22:12:11.482Z,95848.30
2019-03-24T22:17:08.629Z,95833.52
2019-03-24T22:22:05.680Z,95831.17
2019-03-24T22:27:02.678Z,95805.11
2019-03-24T22:31:59.748Z,95796.25
2019-03-24T22:36:56.877Z,95785.13
2019-03-24T22:41:53.804Z,95792.02
2019-03-24T22:46:50.863Z,95796.11
2019-03-24T22:51:47.843Z,95790.77
2019-03-24T22:56:44.970Z,95788.05
2019-03-24T23:01:42.064Z,95776.97
2019-03-24T23:06:39.222Z,95768.77
2019-03-24T23:11:36.187Z,95757.18
2019-03-24T23:16:33.640Z,95739.75
2019-03-24T23:21:30.595Z,95727.41
2019-03-24T23:26:27.610Z,95729.17
2019-03-24T23:31:24.639Z,95717.83
2019-03-24T23:36:21.693Z,95717.80
2019-03-24T23:41:18.629Z,95729.81
2019-03-24T23:46:15.636Z,95730.08
2019-03-24T23:51:12.693Z,95721.07
2019-03-24T23:56:09.903Z,95698.33
